createdAt,value
2023-03-02T00:02:22.351Z,99.90
2023-03-02T00:05:10.738Z,99.90
2023-03-02T00:07:59.122Z,99.90
2023-03-02T00:10:45.668Z,99.90
2023-03-02T00:13:35.221Z,99.90
2023-03-02T00:16:23.132Z,99.90
2023-03-02T00:19:09.474Z,99.90
2023-03-02T00:21:56.262Z,99.90
2023-03-02T00:24:42.660Z,99.90
2023-03-02T00:27:30.033Z,99.90
2023-03-02T00:30:17.542Z,99.90
2023-03-02T00:33:05.399Z,99.90
2023-03-02T00:35:52.157Z,99.90
2023-03-02T00:38:38.568Z,99.90
2023-03-02T00:41:24.917Z,99.90
2023-03-02T00:44:17.419Z,99.90
2023-03-02T00:47:04.090Z,99.90
2023-03-02T00:49:51.750Z,99.90
2023-03-02T00:52:38.382Z,99.90
2023-03-02T00:55:24.854Z,99.90
2023-03-02T00:58:11.175Z,99.90
2023-03-02T01:00:57.850Z,99.90
2023-03-02T01:03:44.474Z,99.90
2023-03-02T01:06:32.877Z,99.90
2023-03-02T01:09:19.742Z,99.90
2023-03-02T01:12:09.326Z,99.90
2023-03-02T01:14:55.983Z,99.90
2023-03-02T01:17:43.862Z,99.90
2023-03-02T01:20:30.708Z,99.90
2023-03-02T01:23:18.785Z,99.90
2023-03-02T01:26:05.662Z,99.90
2023-03-02T01:28:55.317Z,99.90
2023-03-02T01:31:41.756Z,99.90
2023-03-02T01:34:28.149Z,99.90
2023-03-02T01:37:14.579Z,99.90
2023-03-02T01:40:06.734Z,99.90
2023-03-02T01:42:58.259Z,99.90
2023-03-02T01:45:54.183Z,99.90
2023-03-02T01:48:45.955Z,99.90
2023-03-02T01:51:36.354Z,99.90
2023-03-02T01:54:24.556Z,99.90
2023-03-02T01:57:13.126Z,99.90
2023-03-02T02:00:06.938Z,99.90
2023-03-02T02:02:54.812Z,99.90
2023-03-02T02:05:43.967Z,99.90
2023-03-02T02:08:30.531Z,99.90
2023-03-02T02:11:17.195Z,99.90
2023-03-02T02:14:05.371Z,99.90
2023-03-02T02:16:52.968Z,99.90
2023-03-02T02:19:54.631Z,99.90
2023-03-02T02:22:51.309Z,99.90
2023-03-02T02:25:46.489Z,99.90
2023-03-02T02:28:38.252Z,99.90
2023-03-02T02:31:29.105Z,99.90
2023-03-02T02:34:22.391Z,99.90
2023-03-02T02:37:14.936Z,99.90
2023-03-02T02:40:07.135Z,99.90
2023-03-02T02:42:54.963Z,99.90
2023-03-02T02:45:43.530Z,99.90
2023-03-02T02:48:31.999Z,99.90
2023-03-02T02:51:22.617Z,99.90
2023-03-02T02:54:16.077Z,99.90
2023-03-02T02:57:04.868Z,99.90
2023-03-02T02:59:55.316Z,99.90
2023-03-02T03:02:48.014Z,99.90
2023-03-02T03:05:34.807Z,99.90
2023-03-02T03:08:56.890Z,99.90
2023-03-02T03:11:47.520Z,99.90
2023-03-02T03:14:37.082Z,99.90
2023-03-02T03:17:23.851Z,99.90
2023-03-02T03:20:16.999Z,99.90
2023-03-02T03:23:03.613Z,99.90
2023-03-02T03:25:50.242Z,99.90
2023-03-02T03:28:37.157Z,99.90
2023-03-02T03:31:23.517Z,99.90
2023-03-02T03:34:10.737Z,99.90
2023-03-02T03:37:01.737Z,99.90
2023-03-02T03:39:48.396Z,99.90
2023-03-02T03:42:34.749Z,99.90
2023-03-02T03:45:21.306Z,99.90
2023-03-02T03:48:08.017Z,99.90
2023-03-02T03:50:54.926Z,99.90
2023-03-02T03:53:42.689Z,99.90
2023-03-02T03:56:30.998Z,99.90
2023-03-02T03:59:19.940Z,99.90
2023-03-02T04:02:06.370Z,99.90
2023-03-02T04:04:52.881Z,99.90
2023-03-02T04:07:40.665Z,99.90
2023-03-02T04:10:29.046Z,99.90
2023-03-02T04:13:16.134Z,99.90
2023-03-02T04:16:02.960Z,99.90
2023-03-02T04:18:49.264Z,99.90
2023-03-02T04:21:35.800Z,99.90
2023-03-02T04:24:24.011Z,99.90
2023-03-02T04:27:11.835Z,99.90
2023-03-02T04:29:58.187Z,99.90
2023-03-02T04:32:44.886Z,99.90
2023-03-02T04:35:31.691Z,99.90
2023-03-02T04:38:18.096Z,99.90
2023-03-02T04:41:04.596Z,99.90
2023-03-02T04:43:52.489Z,99.90
2023-03-02T04:46:39.906Z,99.90
2023-03-02T04:49:27.146Z,99.90
2023-03-02T04:52:14.021Z,99.90
2023-03-02T04:55:00.539Z,99.90
2023-03-02T04:57:46.958Z,99.90
2023-03-02T05:00:35.296Z,99.90
2023-03-02T05:03:21.619Z,99.90
2023-03-02T05:06:08.652Z,99.90
2023-03-02T05:08:55.300Z,99.90
2023-03-02T05:11:42.381Z,99.90
2023-03-02T05:14:30.009Z,99.90
2023-03-02T05:17:17.935Z,99.90
2023-03-02T05:20:07.157Z,99.90
2023-03-02T05:22:54.162Z,99.90
2023-03-02T05:25:40.840Z,99.90
2023-03-02T05:28:28.506Z,99.90
2023-03-02T05:31:20.002Z,99.90
2023-03-02T05:34:10.563Z,99.90
2023-03-02T05:36:58.160Z,99.90
2023-03-02T05:39:44.711Z,99.90
2023-03-02T05:42:31.213Z,99.90
2023-03-02T05:45:21.416Z,99.90
2023-03-02T05:48:08.527Z,99.90
2023-03-02T05:50:56.800Z,99.90
2023-03-02T05:53:43.136Z,99.90
2023-03-02T05:56:29.393Z,99.90
2023-03-02T05:59:15.791Z,99.90
2023-03-02T06:02:02.609Z,99.90
2023-03-02T06:04:49.161Z,99.90
2023-03-02T06:07:37.090Z,99.90
2023-03-02T06:10:24.028Z,99.90
2023-03-02T06:13:10.326Z,99.90
2023-03-02T06:15:56.925Z,99.90
2023-03-02T06:18:43.712Z,99.90
2023-03-02T06:21:30.129Z,99.90
2023-03-02T06:24:17.805Z,99.90
2023-03-02T06:27:04.273Z,99.90
2023-03-02T06:29:50.799Z,99.90
2023-03-02T06:32:37.187Z,99.90
2023-03-02T06:35:24.869Z,99.90
2023-03-02T06:38:11.662Z,99.90
2023-03-02T06:40:59.475Z,99.90
2023-03-02T06:43:46.588Z,99.90
2023-03-02T06:46:33.400Z,99.90
2023-03-02T06:49:19.862Z,99.90
2023-03-02T06:52:07.250Z,99.90
2023-03-02T06:54:53.999Z,99.90
2023-03-02T06:57:41.824Z,99.90
2023-03-02T07:00:29.188Z,99.90
2023-03-02T07:03:15.762Z,99.90
2023-03-02T07:06:02.330Z,99.90
2023-03-02T07:11:36.006Z,99.90
2023-03-02T07:14:23.855Z,99.90
2023-03-02T07:17:10.398Z,99.90
2023-03-02T07:19:56.724Z,99.90
2023-03-02T07:22:43.969Z,99.90
2023-03-02T07:25:30.690Z,99.90
2023-03-02T07:28:17.086Z,99.90
2023-03-02T07:31:04.873Z,99.90
2023-03-02T07:33:51.083Z,99.90
2023-03-02T07:36:37.482Z,99.90
2023-03-02T07:39:23.756Z,99.90
2023-03-02T07:42:11.736Z,99.90
2023-03-02T07:44:58.116Z,99.90
2023-03-02T07:47:45.902Z,99.90
2023-03-02T07:50:32.510Z,99.90
2023-03-02T07:53:19.029Z,99.90
2023-03-02T07:56:10.176Z,99.90
2023-03-02T07:58:56.574Z,99.90
2023-03-02T08:01:42.795Z,99.90
2023-03-02T08:04:30.526Z,99.90
2023-03-02T08:07:17.218Z,99.90
2023-03-02T08:10:04.169Z,99.90
2023-03-02T08:12:50.635Z,99.90
2023-03-02T08:15:37.054Z,99.90
2023-03-02T08:18:23.407Z,99.90
2023-03-02T08:21:15.331Z,99.90
2023-03-02T08:24:01.917Z,99.90
2023-03-02T08:26:48.417Z,99.90
2023-03-02T08:29:34.753Z,99.90
2023-03-02T08:32:21.340Z,99.90
2023-03-02T08:35:09.529Z,99.90
2023-03-02T08:37:59.590Z,99.90
2023-03-02T08:40:45.839Z,99.90
2023-03-02T08:43:32.356Z,99.90
2023-03-02T08:46:21.290Z,99.90
2023-03-02T08:49:07.602Z,99.90
2023-03-02T08:51:56.282Z,99.90
2023-03-02T08:54:44.373Z,99.90
2023-03-02T08:57:30.820Z,99.90
2023-03-02T09:00:18.640Z,99.90
2023-03-02T09:03:05.061Z,99.90
2023-03-02T09:05:51.543Z,99.90
2023-03-02T09:08:38.039Z,99.90
2023-03-02T09:11:26.229Z,99.90
2023-03-02T09:14:13.010Z,99.90
2023-03-02T09:17:00.406Z,99.90
2023-03-02T09:19:47.137Z,99.90
2023-03-02T09:22:35.809Z,99.90
2023-03-02T09:25:22.325Z,99.90
2023-03-02T09:28:10.048Z,99.90
2023-03-02T09:30:59.823Z,99.90
2023-03-02T09:33:46.467Z,99.90
2023-03-02T09:36:32.871Z,99.90
2023-03-02T09:39:19.499Z,99.90
2023-03-02T09:42:25.457Z,99.90
2023-03-02T09:45:31.031Z,99.90
2023-03-02T09:48:25.657Z,99.10
2023-03-02T09:51:24.146Z,99.50
2023-03-02T09:54:12.435Z,98.40
2023-03-02T09:57:00.498Z,99.70
2023-03-02T09:59:52.813Z,99.50
2023-03-02T10:02:47.543Z,99.60
2023-03-02T10:05:40.338Z,97.50
2023-03-02T10:08:29.954Z,98.90
2023-03-02T10:11:23.511Z,99.10
2023-03-02T10:14:16.202Z,99.00
2023-03-02T10:17:20.582Z,98.00
2023-03-02T10:20:18.040Z,99.00
2023-03-02T10:23:18.455Z,99.30
2023-03-02T10:26:15.621Z,99.40
2023-03-02T10:29:11.653Z,99.90
2023-03-02T10:32:01.917Z,99.90
2023-03-02T10:34:49.984Z,99.90
2023-03-02T10:37:37.535Z,99.90
2023-03-02T10:40:38.944Z,99.90
2023-03-02T10:43:31.711Z,99.90
2023-03-02T10:46:18.161Z,99.90
2023-03-02T10:49:04.493Z,99.90
2023-03-02T10:51:57.675Z,99.90
2023-03-02T10:54:47.356Z,99.90
2023-03-02T10:57:38.038Z,99.90
2023-03-02T11:00:25.915Z,99.90
2023-03-02T11:03:23.128Z,99.90
2023-03-02T11:06:19.707Z,99.90
2023-03-02T11:09:08.302Z,99.90
2023-03-02T11:11:58.908Z,99.90
2023-03-02T11:14:45.597Z,99.90
2023-03-02T11:17:35.153Z,99.90
2023-03-02T11:20:26.276Z,99.90
2023-03-02T11:23:20.636Z,99.90
2023-03-02T11:26:12.370Z,99.90
2023-03-02T11:29:05.498Z,99.90
2023-03-02T11:31:55.520Z,99.90
2023-03-02T11:34:48.259Z,99.90
2023-03-02T11:37:40.799Z,99.90
2023-03-02T11:40:32.620Z,99.90
2023-03-02T11:43:19.237Z,99.90
2023-03-02T11:46:21.540Z,99.90
2023-03-02T11:49:16.325Z,99.90
2023-03-02T11:52:03.319Z,99.90
2023-03-02T11:54:54.770Z,99.90
2023-03-02T11:57:48.553Z,99.90
2023-03-02T12:00:37.602Z,99.90
2023-03-02T12:03:39.338Z,99.90
2023-03-02T12:06:35.433Z,99.90
2023-03-02T12:09:35.601Z,99.90
2023-03-02T12:12:41.847Z,99.90
2023-03-02T12:15:39.489Z,99.90
2023-03-02T12:18:48.841Z,99.90
2023-03-02T12:21:41.896Z,99.90
2023-03-02T12:24:30.561Z,99.90
2023-03-02T12:27:28.492Z,99.90
2023-03-02T12:30:28.600Z,99.90
2023-03-02T12:33:21.426Z,99.90
2023-03-02T12:36:15.659Z,99.90
2023-03-02T12:39:19.747Z,99.90
2023-03-02T12:42:33.128Z,99.90
2023-03-02T12:45:35.957Z,99.90
2023-03-02T12:48:28.478Z,99.90
2023-03-02T12:51:21.479Z,99.90
2023-03-02T12:54:14.821Z,99.90
2023-03-02T12:57:08.897Z,99.90
2023-03-02T12:59:58.037Z,99.90
2023-03-02T13:02:48.164Z,99.90
2023-03-02T13:05:36.398Z,99.90
2023-03-02T13:08:29.173Z,99.90
2023-03-02T13:11:23.597Z,99.90
2023-03-02T13:14:21.654Z,99.90
2023-03-02T13:17:21.037Z,99.90
2023-03-02T13:20:08.393Z,99.90
2023-03-02T13:22:55.616Z,99.90
2023-03-02T13:25:51.748Z,99.90
2023-03-02T13:28:40.000Z,99.90
2023-03-02T13:31:26.548Z,99.90
2023-03-02T13:34:22.653Z,99.90
2023-03-02T13:37:24.254Z,99.90
2023-03-02T13:40:32.210Z,99.90
2023-03-02T13:43:37.223Z,99.90
2023-03-02T13:46:29.824Z,99.90
2023-03-02T13:49:27.725Z,99.90
2023-03-02T13:52:19.664Z,99.90
2023-03-02T13:55:07.507Z,99.90
2023-03-02T13:57:55.345Z,99.90
2023-03-02T14:00:43.516Z,99.90
2023-03-02T14:03:31.935Z,99.90
2023-03-02T14:06:18.958Z,99.90
2023-03-02T14:09:05.791Z,99.90
2023-03-02T14:11:56.025Z,99.90
2023-03-02T14:14:44.483Z,99.90
2023-03-02T14:17:33.105Z,99.90
2023-03-02T14:20:21.352Z,99.90
2023-03-02T14:23:09.461Z,99.90
2023-03-02T14:25:57.429Z,99.90
2023-03-02T14:28:44.797Z,99.90
2023-03-02T14:31:31.848Z,99.90
2023-03-02T14:34:20.120Z,99.90
2023-03-02T14:37:08.782Z,99.90
2023-03-02T14:39:55.837Z,99.90
2023-03-02T14:42:42.184Z,99.90
2023-03-02T14:45:30.787Z,99.90
2023-03-02T14:48:17.644Z,99.90
2023-03-02T14:51:05.694Z,99.90
2023-03-02T14:53:53.863Z,99.90
2023-03-02T14:56:40.476Z,99.90
2023-03-02T14:59:26.915Z,99.90
2023-03-02T15:02:24.786Z,99.90
2023-03-02T15:05:12.519Z,99.90
2023-03-02T15:08:00.218Z,99.90
2023-03-02T15:10:47.786Z,99.90
2023-03-02T15:13:34.301Z,99.90
2023-03-02T15:16:21.163Z,99.90
2023-03-02T15:19:07.751Z,99.90
2023-03-02T15:21:54.439Z,99.90
2023-03-02T15:24:42.347Z,99.90
2023-03-02T15:27:28.798Z,99.90
2023-03-02T15:30:15.183Z,99.90
2023-03-02T15:33:01.797Z,99.90
2023-03-02T15:35:55.249Z,99.90
2023-03-02T15:38:41.778Z,99.90
2023-03-02T15:41:29.642Z,99.90
2023-03-02T15:44:21.673Z,99.90
2023-03-02T15:47:08.680Z,99.90
2023-03-02T15:49:55.006Z,99.90
2023-03-02T15:52:41.914Z,99.90
2023-03-02T15:55:28.357Z,99.90
2023-03-02T15:58:17.696Z,99.90
2023-03-02T16:01:08.809Z,99.90
2023-03-02T16:03:55.529Z,99.90
2023-03-02T16:06:42.100Z,99.90
2023-03-02T16:09:30.932Z,99.90
2023-03-02T16:12:17.830Z,99.90
2023-03-02T16:15:06.739Z,99.90
2023-03-02T16:17:53.398Z,99.90
2023-03-02T16:20:40.396Z,99.90
2023-03-02T16:23:26.673Z,99.90
2023-03-02T16:26:16.450Z,99.90
2023-03-02T16:29:03.325Z,99.90
2023-03-02T16:31:51.321Z,99.90
2023-03-02T16:34:37.971Z,99.90
2023-03-02T16:37:24.630Z,99.90
2023-03-02T16:40:12.923Z,99.90
2023-03-02T16:42:59.648Z,99.90
2023-03-02T16:45:47.620Z,99.90
2023-03-02T16:48:35.478Z,99.90
2023-03-02T16:51:22.635Z,99.90
2023-03-02T16:54:09.115Z,99.90
2023-03-02T16:56:55.644Z,99.90
2023-03-02T16:59:42.021Z,99.90
2023-03-02T17:02:29.246Z,99.90
2023-03-02T17:05:18.574Z,99.90
2023-03-02T17:08:10.001Z,99.90
2023-03-02T17:10:56.772Z,99.90
2023-03-02T17:13:43.370Z,99.90
2023-03-02T17:16:30.134Z,99.90
2023-03-02T17:19:17.757Z,99.90
2023-03-02T17:22:08.457Z,99.90
2023-03-02T17:24:54.756Z,99.90
2023-03-02T17:27:41.263Z,99.90
2023-03-02T17:30:27.745Z,99.90
2023-03-02T17:33:14.479Z,99.90
2023-03-02T17:36:06.181Z,99.90
2023-03-02T17:38:54.397Z,99.90
2023-03-02T17:41:40.944Z,99.90
2023-03-02T17:44:27.500Z,99.90
2023-03-02T17:47:16.218Z,99.90
2023-03-02T17:50:04.558Z,99.90
2023-03-02T17:52:51.051Z,99.90
2023-03-02T17:55:39.434Z,99.90
2023-03-02T17:58:28.545Z,99.90
2023-03-02T18:01:22.905Z,99.90
2023-03-02T18:04:09.257Z,99.90
2023-03-02T18:06:55.795Z,99.90
2023-03-02T18:09:42.479Z,99.90
2023-03-02T18:12:30.394Z,99.90
2023-03-02T18:15:17.287Z,99.90
2023-03-02T18:18:03.769Z,99.90
2023-03-02T18:20:50.444Z,99.90
2023-03-02T18:23:37.279Z,99.90
2023-03-02T18:26:23.680Z,99.90
2023-03-02T18:29:11.797Z,99.90
2023-03-02T18:31:58.274Z,99.90
2023-03-02T18:34:44.580Z,99.90
2023-03-02T18:37:33.882Z,99.90
2023-03-02T18:40:20.485Z,99.90
2023-03-02T18:43:07.112Z,99.90
2023-03-02T18:45:56.773Z,99.90
2023-03-02T18:48:43.124Z,99.90
2023-03-02T18:51:29.587Z,99.90
2023-03-02T18:54:16.439Z,99.90
2023-03-02T18:57:03.536Z,99.90
2023-03-02T18:59:49.931Z,99.90
2023-03-02T19:02:37.626Z,99.90
2023-03-02T19:05:25.132Z,99.90
2023-03-02T19:08:11.723Z,99.90
2023-03-02T19:10:59.040Z,99.90
2023-03-02T19:13:45.627Z,99.90
2023-03-02T19:16:32.222Z,99.90
2023-03-02T19:19:19.930Z,99.90
2023-03-02T19:22:07.232Z,99.90
2023-03-02T19:24:53.759Z,99.90
2023-03-02T19:27:40.228Z,99.90
2023-03-02T19:30:27.809Z,99.90
2023-03-02T19:33:14.460Z,99.90
2023-03-02T19:36:02.377Z,99.90
2023-03-02T19:38:48.948Z,99.90
2023-03-02T19:41:35.709Z,99.90
2023-03-02T19:44:22.436Z,99.90
2023-03-02T19:47:08.694Z,99.90
2023-03-02T19:49:55.068Z,99.90
2023-03-02T19:52:43.000Z,99.90
2023-03-02T19:55:29.621Z,99.90
2023-03-02T19:58:17.557Z,99.90
2023-03-02T20:01:04.849Z,99.90
2023-03-02T20:03:52.512Z,99.90
2023-03-02T20:06:38.992Z,99.90
2023-03-02T20:09:27.767Z,99.90
2023-03-02T20:12:14.389Z,99.90
2023-03-02T20:15:00.734Z,99.90
2023-03-02T20:17:47.158Z,99.90
2023-03-02T20:20:33.477Z,99.90
2023-03-02T20:23:20.134Z,99.90
2023-03-02T20:26:08.563Z,99.90
2023-03-02T20:28:56.524Z,99.90
2023-03-02T20:31:43.196Z,99.90
2023-03-02T20:34:30.129Z,99.90
2023-03-02T20:37:16.819Z,99.90
2023-03-02T20:40:04.256Z,99.90
2023-03-02T20:42:53.139Z,99.90
2023-03-02T20:45:40.032Z,99.90
2023-03-02T20:48:26.333Z,99.90
2023-03-02T20:51:14.896Z,99.90
2023-03-02T20:54:01.367Z,99.90
2023-03-02T20:56:48.012Z,99.90
2023-03-02T20:59:36.357Z,99.90
2023-03-02T21:02:23.290Z,99.90
2023-03-02T21:05:10.795Z,99.90
2023-03-02T21:07:57.872Z,99.90
2023-03-02T21:10:44.691Z,99.90
2023-03-02T21:13:31.680Z,99.90
2023-03-02T21:16:23.845Z,99.90
2023-03-02T21:19:15.140Z,99.90
2023-03-02T21:22:02.029Z,99.90
2023-03-02T21:24:48.921Z,99.90
2023-03-02T21:27:35.397Z,99.90
2023-03-02T21:30:24.167Z,99.90
2023-03-02T21:33:11.810Z,99.90
2023-03-02T21:35:58.918Z,99.90
2023-03-02T21:38:45.407Z,99.90
2023-03-02T21:41:32.185Z,99.90
2023-03-02T21:44:19.122Z,99.90
2023-03-02T21:47:06.023Z,99.90
2023-03-02T21:49:54.040Z,99.90
2023-03-02T21:52:40.904Z,99.90
2023-03-02T21:55:27.565Z,99.90
2023-03-02T21:58:14.373Z,99.90
2023-03-02T22:01:00.837Z,99.90
2023-03-02T22:03:47.321Z,99.90
2023-03-02T22:06:37.550Z,99.90
2023-03-02T22:09:25.909Z,99.90
2023-03-02T22:12:14.532Z,99.90
2023-03-02T22:15:04.186Z,99.90
2023-03-02T22:17:52.336Z,99.90
2023-03-02T22:20:40.124Z,99.90
2023-03-02T22:23:28.538Z,99.90
2023-03-02T22:26:17.537Z,99.90
2023-03-02T22:29:13.518Z,99.90
2023-03-02T22:32:16.453Z,99.90
2023-03-02T22:35:14.869Z,99.90
2023-03-02T22:38:09.886Z,99.90
2023-03-02T22:40:58.478Z,99.90
2023-03-02T22:43:45.807Z,99.90
2023-03-02T22:46:32.384Z,99.90
2023-03-02T22:49:18.980Z,99.90
2023-03-02T22:52:14.007Z,99.90
2023-03-02T22:55:00.506Z,99.90
2023-03-02T22:57:48.228Z,99.90
2023-03-02T23:00:38.390Z,99.90
2023-03-02T23:03:29.044Z,99.90
2023-03-02T23:06:28.290Z,99.90
2023-03-02T23:09:16.832Z,99.90
2023-03-02T23:12:13.431Z,99.90
2023-03-02T23:15:01.686Z,99.90
2023-03-02T23:17:48.345Z,99.90
2023-03-02T23:20:35.124Z,99.90
2023-03-02T23:23:25.153Z,99.90
2023-03-02T23:26:13.603Z,99.90
2023-03-02T23:29:00.276Z,99.90
2023-03-02T23:31:48.485Z,99.90
2023-03-02T23:34:34.910Z,99.90
2023-03-02T23:37:21.197Z,99.90
2023-03-02T23:40:09.114Z,99.90
2023-03-02T23:42:56.248Z,99.90
2023-03-02T23:45:42.903Z,99.90
2023-03-02T23:48:30.483Z,99.90
2023-03-02T23:51:17.351Z,99.90
2023-03-02T23:54:04.807Z,99.90
2023-03-02T23:56:51.314Z,99.90
2023-03-02T23:59:37.873Z,99.90
